createdAt,value
2018-12-29T00:00:17.414Z,0.00
2018-12-29T00:01:17.187Z,0.00
2018-12-29T00:02:17.162Z,0.00
2018-12-29T00:03:17.268Z,0.00
2018-12-29T00:04:16.925Z,0.00
2018-12-29T00:05:23.797Z,0.00
2018-12-29T00:06:16.752Z,0.00
2018-12-29T00:07:16.847Z,0.00
2018-12-29T00:08:16.581Z,0.00
2018-12-29T00:09:16.697Z,0.00
2018-12-29T00:10:16.409Z,0.00
2018-12-29T00:11:16.356Z,0.00
2018-12-29T00:12:16.238Z,0.00
2018-12-29T00:13:16.276Z,0.00
2018-12-29T00:14:16.074Z,0.00
2018-12-29T00:15:15.979Z,0.00
2018-12-29T00:16:15.987Z,0.00
2018-12-29T00:17:15.802Z,0.00
2018-12-29T00:18:15.724Z,0.00
2018-12-29T00:19:15.979Z,0.00
2018-12-29T00:20:15.543Z,0.00
2018-12-29T00:21:15.604Z,0.00
2018-12-29T00:22:15.371Z,0.00
2018-12-29T00:23:15.416Z,0.00
2018-12-29T00:24:15.212Z,0.00
2018-12-29T00:25:15.223Z,0.00
2018-12-29T00:26:15.036Z,0.00
2018-12-29T00:27:15.031Z,0.00
2018-12-29T00:28:14.853Z,0.00
2018-12-29T00:29:14.881Z,0.00
2018-12-29T00:30:14.682Z,0.00
2018-12-29T00:31:14.657Z,0.00
2018-12-29T00:32:14.515Z,0.00
2018-12-29T00:33:14.467Z,0.00
2018-12-29T00:34:14.350Z,0.00
2018-12-29T00:35:14.249Z,0.00
2018-12-29T00:36:14.269Z,0.00
2018-12-29T00:37:14.081Z,0.00
2018-12-29T00:38:14.033Z,0.00
2018-12-29T00:39:14.117Z,0.00
2018-12-29T00:40:13.816Z,0.00
2018-12-29T00:41:13.892Z,0.00
2018-12-29T00:42:13.645Z,0.00
2018-12-29T00:43:13.702Z,0.00
2018-12-29T00:44:13.488Z,0.00
2018-12-29T00:45:13.384Z,0.00
2018-12-29T00:46:13.523Z,0.00
2018-12-29T00:47:13.215Z,0.00
2018-12-29T00:48:13.126Z,0.00
2018-12-29T00:49:13.164Z,0.00
2018-12-29T00:50:12.956Z,0.00
2018-12-29T00:51:12.867Z,0.00
2018-12-29T00:52:12.959Z,0.00
2018-12-29T00:53:12.698Z,0.00
2018-12-29T00:54:12.644Z,0.00
2018-12-29T00:55:12.555Z,0.00
2018-12-29T00:56:12.436Z,0.00
2018-12-29T00:57:12.568Z,0.00
2018-12-29T00:58:12.269Z,0.00
2018-12-29T00:59:12.376Z,0.00
2018-12-29T01:00:12.110Z,0.00
2018-12-29T01:02:43.542Z,0.00
2018-12-29T01:03:43.444Z,0.00
2018-12-29T01:04:43.551Z,0.00
2018-12-29T01:05:43.273Z,0.00
2018-12-29T01:06:43.184Z,0.00
2018-12-29T01:07:43.132Z,0.00
2018-12-29T01:08:43.013Z,0.00
2018-12-29T01:09:42.943Z,0.00
2018-12-29T01:10:42.848Z,0.00
2018-12-29T01:11:42.753Z,0.00
2018-12-29T01:12:42.673Z,0.00
2018-12-29T01:13:42.580Z,0.00
2018-12-29T01:14:42.515Z,0.00
2018-12-29T01:15:42.408Z,0.00
2018-12-29T01:16:42.328Z,0.00
2018-12-29T01:17:42.240Z,0.00
2018-12-29T01:18:42.163Z,0.00
2018-12-29T01:19:42.077Z,0.00
2018-12-29T01:20:41.977Z,0.00
2018-12-29T01:21:41.892Z,0.00
2018-12-29T01:22:41.816Z,0.00
2018-12-29T01:23:41.723Z,0.00
2018-12-29T01:24:41.662Z,0.00
2018-12-29T01:25:41.548Z,0.00
2018-12-29T01:26:41.466Z,0.00
2018-12-29T01:27:41.375Z,0.00
2018-12-29T01:28:41.294Z,0.00
2018-12-29T01:29:41.207Z,0.00
2018-12-29T01:30:41.134Z,0.00
2018-12-29T01:31:41.029Z,0.00
2018-12-29T01:32:40.950Z,0.00
2018-12-29T01:33:40.857Z,0.00
2018-12-29T01:34:40.849Z,0.00
2018-12-29T01:35:40.699Z,0.00
2018-12-29T01:36:40.605Z,0.00
2018-12-29T01:37:40.517Z,0.00
2018-12-29T01:38:40.434Z,0.00
2018-12-29T01:39:40.340Z,0.00
2018-12-29T01:40:40.274Z,0.00
2018-12-29T01:41:40.170Z,0.00
2018-12-29T01:42:40.092Z,0.00
2018-12-29T01:43:39.996Z,0.00
2018-12-29T01:44:39.910Z,0.00
2018-12-29T01:45:39.853Z,0.00
2018-12-29T01:46:39.740Z,0.00
2018-12-29T01:47:39.652Z,0.00
2018-12-29T01:48:39.571Z,0.00
2018-12-29T01:49:39.483Z,0.00
2018-12-29T01:50:39.408Z,0.00
2018-12-29T01:51:39.315Z,0.00
2018-12-29T01:52:39.221Z,0.00
2018-12-29T01:53:39.134Z,0.00
2018-12-29T01:54:40.064Z,0.00
2018-12-29T01:55:38.981Z,0.00
2018-12-29T01:56:38.876Z,0.00
2018-12-29T01:57:38.799Z,0.00
2018-12-29T01:58:38.705Z,0.00
2018-12-29T01:59:38.623Z,0.00
2018-12-29T02:00:38.555Z,0.00
2018-12-29T02:01:38.451Z,0.00
2018-12-29T02:02:38.382Z,0.00
2018-12-29T02:03:38.274Z,0.00
2018-12-29T02:04:38.192Z,0.00
2018-12-29T02:05:38.128Z,0.00
2018-12-29T02:06:38.022Z,0.00
2018-12-29T02:07:37.934Z,0.00
2018-12-29T02:08:37.849Z,0.00
2018-12-29T02:09:37.761Z,0.00
2018-12-29T02:10:37.686Z,0.00
2018-12-29T02:11:37.590Z,0.00
2018-12-29T02:12:37.499Z,0.00
2018-12-29T02:13:37.414Z,0.00
2018-12-29T02:14:37.334Z,0.00
2018-12-29T02:15:37.257Z,0.00
2018-12-29T02:16:37.160Z,0.00
2018-12-29T02:17:37.074Z,0.00
2018-12-29T02:18:36.983Z,0.00
2018-12-29T02:19:36.900Z,0.00
2018-12-29T02:20:36.845Z,0.00
2018-12-29T02:21:36.733Z,0.00
2018-12-29T02:22:36.644Z,0.00
2018-12-29T02:23:36.564Z,0.00
2018-12-29T02:24:36.468Z,0.00
2018-12-29T02:25:36.380Z,0.00
2018-12-29T02:26:36.316Z,0.00
2018-12-29T02:27:36.208Z,0.00
2018-12-29T02:28:36.122Z,0.00
2018-12-29T02:29:36.043Z,0.00
2018-12-29T02:30:35.955Z,0.00
2018-12-29T02:31:35.877Z,0.00
2018-12-29T02:32:35.791Z,0.00
2018-12-29T02:33:35.690Z,0.00
2018-12-29T02:34:35.613Z,0.00
2018-12-29T02:35:36.531Z,0.00
2018-12-29T02:36:35.449Z,0.00
2018-12-29T02:37:35.357Z,0.00
2018-12-29T02:38:35.261Z,0.00
2018-12-29T02:39:35.185Z,0.00
2018-12-29T02:40:35.094Z,0.00
2018-12-29T02:41:35.020Z,0.00
2018-12-29T02:42:34.922Z,0.00
2018-12-29T02:43:34.834Z,0.00
2018-12-29T02:44:34.751Z,0.00
2018-12-29T02:45:34.671Z,0.00
2018-12-29T02:46:34.587Z,0.00
2018-12-29T02:47:34.524Z,0.00
2018-12-29T02:48:34.407Z,0.00
2018-12-29T02:49:34.319Z,0.00
2018-12-29T02:50:34.230Z,0.00
2018-12-29T02:51:34.169Z,0.00
2018-12-29T02:52:34.055Z,0.00
2018-12-29T02:53:33.981Z,0.00
2018-12-29T02:54:33.886Z,0.00
2018-12-29T02:55:33.803Z,0.00
2018-12-29T02:56:33.731Z,0.00
2018-12-29T02:57:33.625Z,0.00
2018-12-29T02:58:33.540Z,0.00
2018-12-29T02:59:33.465Z,0.00
2018-12-29T03:00:33.372Z,0.00
2018-12-29T03:01:33.309Z,0.00
2018-12-29T03:02:33.201Z,0.00
2018-12-29T03:03:33.117Z,0.00
2018-12-29T03:04:33.022Z,0.00
2018-12-29T03:05:32.936Z,0.00
2018-12-29T03:06:32.880Z,0.00
2018-12-29T03:07:32.765Z,0.00
2018-12-29T03:08:32.683Z,0.00
2018-12-29T03:09:32.606Z,0.00
2018-12-29T03:10:32.507Z,0.00
2018-12-29T03:11:32.426Z,0.00
2018-12-29T03:12:32.355Z,0.00
2018-12-29T03:13:32.255Z,0.00
2018-12-29T03:14:32.163Z,0.00
2018-12-29T03:15:32.090Z,0.00
2018-12-29T03:16:31.993Z,0.00
2018-12-29T03:17:31.925Z,0.00
2018-12-29T03:18:31.822Z,0.00
2018-12-29T03:19:31.747Z,0.00
2018-12-29T03:20:31.651Z,0.00
2018-12-29T03:21:31.568Z,0.00
2018-12-29T03:22:31.502Z,0.00
2018-12-29T03:23:31.395Z,0.00
2018-12-29T03:24:31.309Z,0.00
2018-12-29T03:25:31.215Z,0.00
2018-12-29T03:26:31.130Z,0.00
2018-12-29T03:27:31.067Z,0.00
2018-12-29T03:28:30.959Z,0.00
2018-12-29T03:29:30.872Z,0.00
2018-12-29T03:30:30.790Z,0.00
2018-12-29T03:31:30.712Z,0.00
2018-12-29T03:32:30.629Z,0.00
2018-12-29T03:33:30.529Z,0.00
2018-12-29T03:34:30.459Z,0.00
2018-12-29T03:35:30.354Z,0.00
2018-12-29T03:36:30.271Z,0.00
2018-12-29T03:37:30.208Z,0.00
2018-12-29T03:38:30.120Z,0.00
2018-12-29T03:39:30.012Z,0.00
2018-12-29T03:40:29.937Z,0.00
2018-12-29T03:41:29.843Z,0.00
2018-12-29T03:42:29.773Z,0.00
2018-12-29T03:43:29.668Z,0.00
2018-12-29T03:44:29.602Z,0.00
2018-12-29T03:45:29.505Z,0.00
2018-12-29T03:46:29.453Z,0.00
2018-12-29T03:47:29.345Z,0.00
2018-12-29T03:48:29.246Z,0.00
2018-12-29T03:49:29.154Z,0.00
2018-12-29T03:50:29.070Z,0.00
2018-12-29T03:51:28.983Z,0.00
2018-12-29T03:52:28.939Z,0.00
2018-12-29T03:53:28.809Z,0.00
2018-12-29T03:54:28.726Z,0.00
2018-12-29T03:55:28.638Z,0.00
2018-12-29T03:56:28.566Z,0.00
2018-12-29T03:57:28.481Z,0.00
2018-12-29T03:58:28.385Z,0.00
2018-12-29T03:59:28.292Z,0.00
2018-12-29T04:00:28.209Z,0.00
2018-12-29T04:01:28.117Z,0.00
2018-12-29T04:02:28.065Z,0.00
2018-12-29T04:03:27.966Z,0.00
2018-12-29T04:04:27.872Z,0.00
2018-12-29T04:05:27.776Z,0.00
2018-12-29T04:06:27.688Z,0.00
2018-12-29T04:07:27.615Z,0.00
2018-12-29T04:08:27.530Z,0.00
2018-12-29T04:09:27.430Z,0.00
2018-12-29T04:10:27.357Z,0.00
2018-12-29T04:11:27.260Z,0.00
2018-12-29T04:12:27.172Z,0.00
2018-12-29T04:13:27.107Z,0.00
2018-12-29T04:14:26.998Z,0.00
2018-12-29T04:15:26.915Z,0.00
2018-12-29T04:16:26.832Z,0.00
2018-12-29T04:17:26.743Z,0.00
2018-12-29T04:18:26.674Z,0.00
2018-12-29T04:19:26.576Z,0.00
2018-12-29T04:20:26.483Z,0.00
2018-12-29T04:21:26.403Z,0.00
2018-12-29T04:22:26.317Z,0.00
2018-12-29T04:23:26.255Z,0.00
2018-12-29T04:24:26.146Z,0.00
2018-12-29T04:25:26.067Z,0.00
2018-12-29T04:26:25.991Z,0.00
2018-12-29T04:27:25.896Z,0.00
2018-12-29T04:28:25.820Z,0.00
2018-12-29T04:29:25.714Z,0.00
2018-12-29T04:30:25.640Z,0.00
2018-12-29T04:31:25.542Z,0.00
2018-12-29T04:32:25.457Z,0.00
2018-12-29T04:33:25.379Z,0.00
2018-12-29T04:34:25.291Z,0.00
2018-12-29T04:35:25.192Z,0.00
2018-12-29T04:36:25.111Z,0.00
2018-12-29T04:37:25.027Z,0.00
2018-12-29T04:38:24.977Z,0.00
2018-12-29T04:39:24.854Z,0.00
2018-12-29T04:40:24.768Z,0.00
2018-12-29T04:41:24.684Z,0.00
2018-12-29T04:42:24.611Z,0.00
2018-12-29T04:43:24.529Z,0.00
2018-12-29T04:44:24.421Z,0.00
2018-12-29T04:45:24.334Z,0.00
2018-12-29T04:46:24.256Z,0.00
2018-12-29T04:47:24.158Z,0.00
2018-12-29T04:48:24.094Z,0.00
2018-12-29T04:49:23.994Z,0.00
2018-12-29T04:50:23.904Z,0.00
2018-12-29T04:51:23.817Z,0.00
2018-12-29T04:52:23.738Z,0.00
2018-12-29T04:53:23.670Z,0.00
2018-12-29T04:54:23.623Z,0.00
2018-12-29T04:55:23.477Z,0.00
2018-12-29T04:56:23.385Z,0.00
2018-12-29T04:57:23.325Z,0.00
2018-12-29T04:58:23.215Z,0.00
2018-12-29T04:59:23.147Z,0.00
2018-12-29T05:00:23.043Z,0.00
2018-12-29T05:01:22.966Z,0.00
2018-12-29T05:02:22.868Z,0.00
2018-12-29T05:03:22.793Z,0.00
2018-12-29T05:04:22.708Z,0.00
2018-12-29T05:05:22.615Z,0.00
2018-12-29T05:06:22.523Z,0.00
2018-12-29T05:07:22.438Z,0.00
2018-12-29T05:08:22.356Z,0.00
2018-12-29T05:09:22.276Z,0.00
2018-12-29T05:10:22.176Z,0.00
2018-12-29T05:11:22.096Z,0.00
2018-12-29T05:12:22.007Z,0.00
2018-12-29T05:13:21.925Z,0.00
2018-12-29T05:14:21.854Z,0.00
2018-12-29T05:15:21.756Z,0.00
2018-12-29T05:16:21.665Z,0.00
2018-12-29T05:17:21.579Z,0.00
2018-12-29T05:18:21.499Z,0.00
2018-12-29T05:19:21.422Z,0.00
2018-12-29T05:20:21.314Z,0.00
2018-12-29T05:21:22.237Z,0.00
2018-12-29T05:22:21.141Z,0.00
2018-12-29T05:23:21.066Z,0.00
2018-12-29T05:24:20.988Z,0.00
2018-12-29T05:25:20.890Z,0.00
2018-12-29T05:26:20.802Z,0.00
2018-12-29T05:27:20.719Z,0.00
2018-12-29T05:28:20.623Z,0.00
2018-12-29T05:29:20.587Z,0.00
2018-12-29T05:30:20.453Z,0.00
2018-12-29T05:31:20.369Z,0.00
2018-12-29T05:32:20.279Z,0.00
2018-12-29T05:33:20.196Z,0.00
2018-12-29T05:34:20.112Z,0.00
2018-12-29T05:35:20.079Z,0.00
2018-12-29T05:36:19.930Z,0.00
2018-12-29T05:37:19.858Z,0.00
2018-12-29T05:38:19.759Z,0.00
2018-12-29T05:39:19.689Z,0.00
2018-12-29T05:40:19.601Z,0.00
2018-12-29T05:41:19.498Z,0.00
2018-12-29T05:42:19.423Z,0.00
2018-12-29T05:43:19.324Z,0.00
2018-12-29T05:44:19.243Z,0.00
2018-12-29T05:45:19.174Z,0.00
2018-12-29T05:46:20.559Z,0.00
2018-12-29T05:47:18.981Z,0.00
2018-12-29T05:48:18.895Z,0.00
2018-12-29T05:49:18.822Z,0.00
2018-12-29T05:50:18.739Z,0.00
2018-12-29T05:51:18.644Z,0.00
2018-12-29T05:52:18.551Z,0.00
2018-12-29T05:53:18.470Z,0.00
2018-12-29T05:54:18.375Z,0.00
2018-12-29T05:55:18.311Z,0.00
2018-12-29T05:56:18.205Z,0.00
2018-12-29T05:57:18.121Z,0.00
2018-12-29T05:58:18.036Z,0.00
2018-12-29T05:59:17.950Z,0.00
2018-12-29T06:00:17.871Z,0.00
2018-12-29T06:01:17.776Z,0.00
2018-12-29T06:02:17.683Z,0.00
2018-12-29T06:03:17.599Z,0.00
2018-12-29T06:04:17.532Z,0.00
2018-12-29T06:05:17.437Z,0.00
2018-12-29T06:06:17.341Z,0.00
2018-12-29T06:07:17.259Z,0.00
2018-12-29T06:08:17.165Z,0.00
2018-12-29T06:09:17.087Z,0.00
2018-12-29T06:10:17.028Z,0.00
2018-12-29T06:11:16.903Z,0.00
2018-12-29T06:12:16.822Z,0.00
2018-12-29T06:13:16.730Z,0.00
2018-12-29T06:14:16.650Z,0.00
2018-12-29T06:15:16.563Z,0.00
2018-12-29T06:16:16.483Z,0.00
2018-12-29T06:17:16.381Z,0.00
2018-12-29T06:18:16.305Z,0.00
2018-12-29T06:19:16.209Z,0.00
2018-12-29T06:20:16.128Z,0.00
2018-12-29T06:21:16.062Z,0.00
2018-12-29T06:22:15.957Z,0.00
2018-12-29T06:23:15.870Z,0.00
2018-12-29T06:24:15.789Z,0.00
2018-12-29T06:25:15.694Z,0.00
2018-12-29T06:26:15.622Z,0.00
2018-12-29T06:27:15.527Z,0.00
2018-12-29T06:28:15.431Z,0.00
2018-12-29T06:29:15.352Z,0.00
2018-12-29T06:30:15.269Z,0.00
2018-12-29T06:31:15.188Z,0.00
2018-12-29T06:32:15.088Z,0.00
2018-12-29T06:33:15.006Z,0.00
2018-12-29T06:34:14.913Z,0.00
2018-12-29T06:35:14.832Z,0.00
2018-12-29T06:36:14.752Z,0.00
2018-12-29T06:37:14.659Z,0.00
2018-12-29T06:38:14.572Z,0.00
2018-12-29T06:39:14.484Z,0.00
2018-12-29T06:40:14.401Z,0.00
2018-12-29T06:41:14.327Z,0.00
2018-12-29T06:42:14.222Z,0.00
2018-12-29T06:43:14.144Z,0.00
2018-12-29T06:44:14.054Z,0.00
2018-12-29T06:45:13.961Z,0.00
2018-12-29T06:46:13.902Z,0.00
2018-12-29T06:47:13.793Z,0.00
2018-12-29T06:48:13.703Z,0.00
2018-12-29T06:49:13.613Z,0.00
2018-12-29T06:50:13.542Z,0.00
2018-12-29T06:51:13.442Z,0.00
2018-12-29T06:52:13.405Z,0.00
2018-12-29T06:53:13.279Z,0.00
2018-12-29T06:54:13.182Z,0.00
2018-12-29T06:55:13.099Z,0.00
2018-12-29T06:56:13.016Z,0.00
2018-12-29T06:57:12.940Z,0.00
2018-12-29T06:58:12.845Z,0.00
2018-12-29T06:59:12.755Z,0.00
2018-12-29T07:00:12.674Z,0.00
2018-12-29T07:01:12.580Z,0.00
2018-12-29T07:02:12.508Z,0.00
2018-12-29T07:03:12.413Z,0.00
2018-12-29T07:04:12.325Z,4.00
2018-12-29T07:05:12.233Z,0.00
2018-12-29T07:06:12.155Z,4.00
2018-12-29T07:07:12.075Z,4.00
2018-12-29T07:08:11.979Z,4.00
2018-12-29T07:09:11.890Z,4.00
2018-12-29T07:10:11.804Z,4.00
2018-12-29T07:11:11.713Z,8.00
2018-12-29T07:12:11.676Z,8.00
2018-12-29T07:13:11.545Z,8.00
2018-12-29T07:14:11.458Z,12.00
2018-12-29T07:15:11.374Z,12.00
2018-12-29T07:16:11.289Z,12.00
2018-12-29T07:17:11.239Z,12.00
2018-12-29T07:18:11.117Z,16.00
2018-12-29T07:19:11.028Z,16.00
2018-12-29T07:20:10.948Z,20.00
2018-12-29T07:21:10.849Z,24.00
2018-12-29T07:22:10.777Z,28.00
2018-12-29T07:23:10.681Z,32.00
2018-12-29T07:24:10.590Z,36.00
2018-12-29T07:25:10.509Z,40.00
2018-12-29T07:26:10.427Z,44.00
2018-12-29T07:27:10.362Z,52.00
2018-12-29T07:28:10.244Z,68.00
2018-12-29T07:29:10.169Z,88.00
2018-12-29T07:30:10.142Z,108.00
2018-12-29T07:31:09.987Z,120.00
2018-12-29T07:32:09.907Z,124.00
2018-12-29T07:33:09.825Z,128.00
2018-12-29T07:34:09.731Z,140.00
2018-12-29T07:35:09.644Z,156.00
2018-12-29T07:36:09.558Z,180.00
2018-12-29T07:37:09.467Z,192.00
2018-12-29T07:38:09.397Z,192.00
2018-12-29T07:39:09.306Z,204.00
2018-12-29T07:40:09.208Z,216.00
2018-12-29T07:41:09.125Z,236.00
2018-12-29T07:42:09.039Z,252.00
2018-12-29T07:43:08.960Z,252.00
2018-12-29T07:44:08.865Z,240.00
2018-12-29T07:45:08.777Z,244.00
2018-12-29T07:46:08.703Z,272.00
2018-12-29T07:47:08.602Z,276.00
2018-12-29T07:48:08.531Z,292.00
2018-12-29T07:49:08.440Z,308.00
2018-12-29T07:50:08.350Z,312.00
2018-12-29T07:51:08.257Z,344.00
2018-12-29T07:52:08.178Z,400.00
2018-12-29T07:53:08.104Z,416.00
2018-12-29T07:54:08.000Z,392.00
2018-12-29T07:55:07.921Z,380.00
2018-12-29T07:56:07.826Z,416.00
2018-12-29T07:57:07.745Z,444.00
2018-12-29T07:58:07.675Z,480.00
2018-12-29T07:59:07.566Z,496.00
2018-12-29T08:00:07.488Z,484.00
2018-12-29T08:01:07.394Z,492.00
2018-12-29T08:02:07.356Z,484.00
2018-12-29T08:03:07.235Z,476.00
2018-12-29T08:04:07.148Z,488.00
2018-12-29T08:05:07.055Z,508.00
2018-12-29T08:06:06.968Z,524.00
2018-12-29T08:07:06.875Z,560.00
2018-12-29T08:08:06.830Z,600.00
2018-12-29T08:09:06.711Z,612.00
2018-12-29T08:10:06.616Z,612.00
2018-12-29T08:11:06.534Z,644.00
2018-12-29T08:12:06.451Z,668.00
2018-12-29T08:13:06.358Z,720.00
2018-12-29T08:14:06.303Z,728.00
2018-12-29T08:15:06.186Z,752.00
2018-12-29T08:16:06.105Z,784.00
2018-12-29T08:17:06.012Z,824.00
2018-12-29T08:18:05.954Z,780.00
2018-12-29T08:19:05.861Z,788.00
2018-12-29T08:20:05.761Z,820.00
2018-12-29T08:21:05.671Z,844.00
2018-12-29T08:22:05.584Z,844.00
2018-12-29T08:23:05.505Z,892.00
2018-12-29T08:24:05.434Z,888.00
2018-12-29T08:25:05.325Z,916.00
2018-12-29T08:26:05.243Z,956.00
2018-12-29T08:27:05.148Z,1036.00
2018-12-29T08:28:05.064Z,1096.00
2018-12-29T08:29:05.000Z,1168.00
2018-12-29T08:30:04.908Z,1140.00
2018-12-29T08:31:04.805Z,1208.00
2018-12-29T08:32:04.723Z,1200.00
2018-12-29T08:33:04.634Z,1184.00
2018-12-29T08:34:04.579Z,1188.00
2018-12-29T08:35:04.462Z,1288.00
2018-12-29T08:36:04.381Z,1236.00
2018-12-29T08:37:04.299Z,1224.00
2018-12-29T08:38:04.213Z,1308.00
2018-12-29T08:39:04.121Z,1328.00
2018-12-29T08:40:04.045Z,1308.00
2018-12-29T08:41:03.944Z,1360.00
2018-12-29T08:42:03.863Z,1456.00
2018-12-29T08:43:03.771Z,1440.00
2018-12-29T08:44:03.690Z,1624.00
2018-12-29T08:45:03.629Z,1624.00
2018-12-29T08:46:03.523Z,1652.00
2018-12-29T08:47:04.676Z,1548.00
2018-12-29T08:48:03.350Z,1704.00
2018-12-29T08:49:03.256Z,1776.00
2018-12-29T08:50:03.190Z,1624.00
2018-12-29T08:51:03.084Z,1664.00
2018-12-29T08:52:03.008Z,1700.00
2018-12-29T08:53:02.913Z,1696.00
2018-12-29T08:54:02.827Z,1756.00
2018-12-29T08:55:02.762Z,1780.00
2018-12-29T08:56:02.661Z,1880.00
2018-12-29T08:57:02.575Z,1968.00
2018-12-29T08:58:02.487Z,2136.00
2018-12-29T08:59:02.394Z,2072.00
2018-12-29T09:00:02.335Z,1960.00
2018-12-29T09:01:02.224Z,2128.00
2018-12-29T09:02:02.141Z,2188.00
2018-12-29T09:03:02.057Z,2020.00
2018-12-29T09:04:01.965Z,2224.00
2018-12-29T09:05:01.897Z,2160.00
2018-12-29T09:06:01.806Z,2240.00
2018-12-29T09:07:01.707Z,1888.00
2018-12-29T09:08:01.628Z,2164.00
2018-12-29T09:09:01.542Z,2212.00
2018-12-29T09:10:01.475Z,2176.00
2018-12-29T09:11:01.374Z,2136.00
2018-12-29T09:12:01.283Z,2440.00
2018-12-29T09:13:01.197Z,2308.00
2018-12-29T09:14:01.106Z,2400.00
2018-12-29T09:15:01.032Z,2600.00
2018-12-29T09:16:00.944Z,2536.00
2018-12-29T09:17:00.850Z,2596.00
2018-12-29T09:18:00.767Z,2608.00
2018-12-29T09:19:00.677Z,2620.00
2018-12-29T09:20:00.613Z,2840.00
2018-12-29T09:21:00.505Z,2964.00
2018-12-29T09:22:00.419Z,3120.00
2018-12-29T09:23:00.344Z,3112.00
2018-12-29T09:24:00.256Z,3068.00
2018-12-29T09:25:00.269Z,3268.00
2018-12-29T09:26:00.083Z,3120.00
2018-12-29T09:26:59.990Z,3016.00
2018-12-29T09:27:59.909Z,3140.00
2018-12-29T09:28:59.832Z,3016.00
2018-12-29T09:29:59.734Z,3044.00
2018-12-29T09:30:59.672Z,3116.00
2018-12-29T09:31:59.569Z,3348.00
2018-12-29T09:32:59.479Z,3344.00
2018-12-29T09:33:59.396Z,3388.00
2018-12-29T09:34:59.308Z,3416.00
2018-12-29T09:35:59.236Z,3460.00
2018-12-29T09:36:59.208Z,3588.00
2018-12-29T09:37:59.047Z,3780.00
2018-12-29T09:38:59.026Z,3784.00
2018-12-29T09:39:58.875Z,3744.00
2018-12-29T09:40:58.912Z,3652.00
2018-12-29T09:41:58.704Z,3604.00
2018-12-29T09:42:58.684Z,3384.00
2018-12-29T09:43:58.543Z,3488.00
2018-12-29T09:44:58.489Z,3432.00
2018-12-29T09:45:58.376Z,3512.00
2018-12-29T09:47:05.262Z,3500.00
2018-12-29T09:47:58.189Z,3436.00
2018-12-29T09:48:58.105Z,3392.00
2018-12-29T09:49:58.120Z,3404.00
2018-12-29T09:50:57.961Z,3468.00
2018-12-29T09:51:57.847Z,3600.00
2018-12-29T09:52:59.875Z,3580.00
2018-12-29T09:53:57.682Z,3492.00
2018-12-29T09:54:57.738Z,3592.00
2018-12-29T09:55:57.506Z,3720.00
2018-12-29T09:56:57.581Z,3784.00
2018-12-29T09:57:57.335Z,3804.00
2018-12-29T09:58:57.328Z,3840.00
2018-12-29T09:59:57.164Z,3924.00
2018-12-29T10:00:57.289Z,3956.00
2018-12-29T10:01:57.011Z,3828.00
2018-12-29T10:02:57.129Z,4004.00
2018-12-29T10:03:56.824Z,4012.00
2018-12-29T10:04:56.935Z,4132.00
2018-12-29T10:05:56.658Z,4340.00
2018-12-29T10:06:56.779Z,4388.00
2018-12-29T10:07:56.482Z,4584.00
2018-12-29T10:08:56.552Z,4592.00
2018-12-29T10:09:56.313Z,4868.00
2018-12-29T10:10:56.361Z,4824.00
2018-12-29T10:11:56.155Z,5176.00
2018-12-29T10:12:56.059Z,5452.00
2018-12-29T10:13:56.176Z,5432.00
2018-12-29T10:14:55.885Z,5536.00
2018-12-29T10:15:55.800Z,5604.00
2018-12-29T10:16:55.818Z,5536.00
2018-12-29T10:17:55.632Z,5412.00
2018-12-29T10:18:55.543Z,5412.00
2018-12-29T10:19:55.603Z,5292.00
2018-12-29T10:20:55.374Z,5328.00
2018-12-29T10:21:55.312Z,5404.00
2018-12-29T10:22:55.258Z,5432.00
2018-12-29T10:23:55.117Z,5432.00
2018-12-29T10:24:55.035Z,5588.00
2018-12-29T10:25:55.057Z,5660.00
2018-12-29T10:26:54.862Z,5640.00
2018-12-29T10:27:54.791Z,5712.00
2018-12-29T10:28:54.903Z,5816.00
2018-12-29T10:29:54.607Z,5764.00
2018-12-29T10:30:54.521Z,5524.00
2018-12-29T10:31:54.721Z,5204.00
2018-12-29T10:32:54.371Z,5632.00
2018-12-29T10:33:55.326Z,5728.00
2018-12-29T10:34:55.250Z,5516.00
2018-12-29T10:35:54.098Z,5252.00
2018-12-29T10:36:54.011Z,5548.00
2018-12-29T10:37:53.972Z,5752.00
2018-12-29T10:38:53.841Z,6044.00
2018-12-29T10:39:53.957Z,6064.00
2018-12-29T10:40:53.673Z,6168.00
2018-12-29T10:41:53.668Z,6316.00
2018-12-29T10:42:53.520Z,6060.00
2018-12-29T10:43:53.471Z,6124.00
2018-12-29T10:44:53.339Z,5968.00
2018-12-29T10:45:54.302Z,6128.00
2018-12-29T10:46:53.166Z,6024.00
2018-12-29T10:47:53.120Z,6108.00
2018-12-29T10:48:52.989Z,6784.00
2018-12-29T10:49:52.905Z,6564.00
2018-12-29T10:50:52.902Z,6308.00
2018-12-29T10:51:52.736Z,6448.00
2018-12-29T10:52:52.673Z,6668.00
2018-12-29T10:53:52.621Z,6132.00
2018-12-29T10:54:52.485Z,5756.00
2018-12-29T10:55:52.396Z,5988.00
2018-12-29T10:56:52.337Z,6088.00
2018-12-29T10:57:52.248Z,5972.00
2018-12-29T10:58:52.147Z,6912.00
2018-12-29T10:59:52.148Z,7092.00
2018-12-29T11:00:51.977Z,6516.00
2018-12-29T11:01:51.954Z,6392.00
2018-12-29T11:02:51.821Z,6084.00
2018-12-29T11:03:51.771Z,6316.00
2018-12-29T11:04:51.636Z,7060.00
2018-12-29T11:05:51.576Z,7392.00
2018-12-29T11:06:51.470Z,7628.00
2018-12-29T11:07:51.516Z,8044.00
2018-12-29T11:08:51.300Z,8188.00
2018-12-29T11:09:51.217Z,7888.00
2018-12-29T11:10:53.345Z,7388.00
2018-12-29T11:11:51.045Z,7312.00
2018-12-29T11:12:50.982Z,6940.00
2018-12-29T11:13:50.913Z,7492.00
2018-12-29T11:14:50.793Z,8208.00
2018-12-29T11:15:50.853Z,8884.00
2018-12-29T11:16:50.616Z,9088.00
2018-12-29T11:17:50.534Z,9500.00
2018-12-29T11:18:50.496Z,9540.00
2018-12-29T11:19:50.364Z,9452.00
2018-12-29T11:20:50.280Z,9960.00
2018-12-29T11:21:50.281Z,10284.00
2018-12-29T11:22:50.108Z,9796.00
2018-12-29T11:23:50.040Z,9192.00
2018-12-29T11:24:50.095Z,8952.00
2018-12-29T11:25:49.858Z,8308.00
2018-12-29T11:26:49.774Z,8544.00
2018-12-29T11:27:49.913Z,8992.00
2018-12-29T11:28:49.645Z,9688.00
2018-12-29T11:29:49.718Z,10496.00
2018-12-29T11:30:49.438Z,10332.00
2018-12-29T11:31:51.682Z,10288.00
2018-12-29T11:32:49.268Z,10544.00
2018-12-29T11:33:49.194Z,10108.00
2018-12-29T11:34:49.136Z,9536.00
2018-12-29T11:35:49.017Z,9196.00
2018-12-29T11:36:48.930Z,8688.00
2018-12-29T11:37:48.951Z,8512.00
2018-12-29T11:38:48.785Z,7852.00
2018-12-29T11:39:48.684Z,7940.00
2018-12-29T11:40:48.800Z,7576.00
2018-12-29T11:41:48.517Z,7292.00
2018-12-29T11:42:48.426Z,7216.00
2018-12-29T11:43:48.375Z,7328.00
2018-12-29T11:44:48.272Z,7180.00
2018-12-29T11:45:48.175Z,7084.00
2018-12-29T11:46:48.275Z,7216.00
2018-12-29T11:47:49.887Z,7192.00
2018-12-29T11:48:47.923Z,6784.00
2018-12-29T11:49:47.923Z,6296.00
2018-12-29T11:50:47.752Z,6088.00
2018-12-29T11:51:47.672Z,6068.00
2018-12-29T11:52:47.620Z,5916.00
2018-12-29T11:53:47.508Z,5524.00
2018-12-29T11:54:47.457Z,5284.00
2018-12-29T11:55:47.331Z,5008.00
2018-12-29T11:56:47.451Z,5160.00
2018-12-29T11:57:47.170Z,5592.00
2018-12-29T11:58:47.248Z,5700.00
2018-12-29T11:59:47.007Z,5844.00
2018-12-29T12:00:48.080Z,6132.00
2018-12-29T12:01:46.825Z,6660.00
2018-12-29T12:02:46.746Z,7224.00
2018-12-29T12:03:46.660Z,7748.00
2018-12-29T12:04:46.704Z,8008.00
2018-12-29T12:05:46.493Z,7960.00
2018-12-29T12:06:46.569Z,7524.00
2018-12-29T12:07:46.318Z,7548.00
2018-12-29T12:08:46.382Z,7808.00
2018-12-29T12:09:46.200Z,7888.00
2018-12-29T12:10:46.100Z,7532.00
2018-12-29T12:11:45.980Z,6848.00
2018-12-29T12:12:46.114Z,6484.00
2018-12-29T12:13:45.812Z,6708.00
2018-12-29T12:14:45.730Z,6812.00
2018-12-29T12:15:46.867Z,6800.00
2018-12-29T12:16:45.570Z,7252.00
2018-12-29T12:17:45.478Z,8112.00
2018-12-29T12:18:45.542Z,8696.00
2018-12-29T12:19:45.308Z,8440.00
2018-12-29T12:20:45.242Z,7752.00
2018-12-29T12:21:45.352Z,7464.00
2018-12-29T12:22:45.056Z,7536.00
2018-12-29T12:23:44.978Z,7636.00
2018-12-29T12:24:44.966Z,7788.00
2018-12-29T12:25:44.813Z,7572.00
2018-12-29T12:26:44.713Z,7472.00
2018-12-29T12:27:44.870Z,7840.00
2018-12-29T12:28:44.547Z,7984.00
2018-12-29T12:29:44.462Z,7592.00
2018-12-29T12:30:44.434Z,6808.00
2018-12-29T12:31:44.293Z,6576.00
2018-12-29T12:32:44.212Z,7124.00
2018-12-29T12:33:45.320Z,7940.00
2018-12-29T12:34:44.039Z,7808.00
2018-12-29T12:35:44.048Z,7136.00
2018-12-29T12:36:43.881Z,6688.00
2018-12-29T12:37:43.919Z,6880.00
2018-12-29T12:38:43.715Z,6868.00
2018-12-29T12:39:43.898Z,6692.00
2018-12-29T12:40:43.577Z,6692.00
2018-12-29T12:41:43.742Z,7184.00
2018-12-29T12:42:43.793Z,7788.00
2018-12-29T12:43:43.551Z,7776.00
2018-12-29T12:44:43.205Z,7648.00
2018-12-29T12:45:45.441Z,7856.00
2018-12-29T12:46:43.028Z,8152.00
2018-12-29T12:47:43.169Z,8160.00